Depesza METAR lotniska Warszawa-Okęcie

METAR = EPWA 230530Z 04006KT CAVOK 19/14 Q1016 NOSIG

STACJA......... EPWA - Warszawa-Okęcie (WAW)
POMIAR......... Wed Jul 23, 07:30 CEST
TERAZ.......... Wed Jul 23, 07:44 CEST
CZAS........... 14 min temu
WIATR.......... północno-wschodni (NE) z prędkością 11 km/h
WIDZIALNOŚĆ.. powyżej 10 kilometrów
CHMURY......... bezchmurne niebo
TEMPERATURA.... 19°C
T.PUNKTU ROSY.. 14°C
WILGOTNOŚĆ... 73%
CIŚNIENIE..... 1016 hPa
PROGNOZA....... bez nagłych zmian w ciągu 2h

Depesza METAR lotniska Kraków-Balice

METAR = EPKK 230500Z 04006KT 020V080 9999 FEW053 18/14 Q1014

STACJA......... EPKK - Kraków-Balice (KRK)
POMIAR......... Wed Jul 23, 07:00 CEST
TERAZ.......... Wed Jul 23, 07:44 CEST
CZAS........... 44 min temu
WIATR.......... północno-wschodni (NE) z prędkością 11 km/h
WIDZIALNOŚĆ.. powyżej 10 kilometrów
CHMURY......... zachmurzenie niewielkie (1/8-2/8)
TEMPERATURA.... 18°C
T.PUNKTU ROSY.. 14°C
WILGOTNOŚĆ... 78%
CIŚNIENIE..... 1014 hPa

Depesza METAR lotniska Łódź-Lublinek

METAR = EPLL 230530Z 04006KT CAVOK 20/14 Q1016

STACJA......... EPLL - Łódź-Lublinek (LCJ)
POMIAR......... Wed Jul 23, 07:30 CEST
TERAZ.......... Wed Jul 23, 07:44 CEST
CZAS........... 14 min temu
WIATR.......... północno-wschodni (NE) z prędkością 11 km/h
WIDZIALNOŚĆ.. powyżej 10 kilometrów
CHMURY......... bezchmurne niebo
TEMPERATURA.... 20°C
T.PUNKTU ROSY.. 14°C
WILGOTNOŚĆ... 69%
CIŚNIENIE..... 1016 hPa

Depesza METAR lotniska Wrocław-Strachowice

METAR = EPWR 230530Z 33004KT 290V010 CAVOK 20/14 Q1017

STACJA......... EPWR - Wrocław-Strachowice (WRO)
POMIAR......... Wed Jul 23, 07:30 CEST
TERAZ.......... Wed Jul 23, 07:44 CEST
CZAS........... 14 min temu
WIATR.......... północno północno-zachodni (NNW) z prędkością 7 km/h
WIDZIALNOŚĆ.. powyżej 10 kilometrów
CHMURY......... bezchmurne niebo
TEMPERATURA.... 20°C
T.PUNKTU ROSY.. 14°C
WILGOTNOŚĆ... 69%
CIŚNIENIE..... 1017 hPa

Depesza METAR lotniska Katowice-Pyrzowice

METAR = EPKT 230500Z 02006KT 330V050 CAVOK 17/13 Q1015

STACJA......... EPKT - Katowice-Pyrzowice (KTW)
POMIAR......... Wed Jul 23, 07:00 CEST
TERAZ.......... Wed Jul 23, 07:44 CEST
CZAS........... 44 min temu
WIATR.......... północno północno-wschodni (NNE) z prędkością 11 km/h
WIDZIALNOŚĆ.. powyżej 10 kilometrów
CHMURY......... bezchmurne niebo
TEMPERATURA.... 17°C
T.PUNKTU ROSY.. 13°C
WILGOTNOŚĆ... 77%
CIŚNIENIE..... 1015 hPa

Depesza METAR lotniska Gdańsk

METAR = EPGD 230530Z 05008KT 010V080 CAVOK 20/16 Q1020

STACJA......... EPGD - Gdańsk im. Lecha Wałęsy (GDN)
POMIAR......... Wed Jul 23, 07:30 CEST
TERAZ.......... Wed Jul 23, 07:44 CEST
CZAS........... 14 min temu
WIATR.......... północno-wschodni (NE) z prędkością 15 km/h
WIDZIALNOŚĆ.. powyżej 10 kilometrów
CHMURY......... bezchmurne niebo
TEMPERATURA.... 20°C
T.PUNKTU ROSY.. 16°C
WILGOTNOŚĆ... 78%
CIŚNIENIE..... 1020 hPa

Depesza METAR lotniska Poznań-Ławica

METAR = EPPO 230530Z 03006KT CAVOK 19/14 Q1018

STACJA......... EPPO - Poznań-Ławica (POZ)
POMIAR......... Wed Jul 23, 07:30 CEST
TERAZ.......... Wed Jul 23, 07:44 CEST
CZAS........... 14 min temu
WIATR.......... północno północno-wschodni (NNE) z prędkością 11 km/h
WIDZIALNOŚĆ.. powyżej 10 kilometrów
CHMURY......... bezchmurne niebo
TEMPERATURA.... 19°C
T.PUNKTU ROSY.. 14°C
WILGOTNOŚĆ... 73%
CIŚNIENIE..... 1018 hPa

Depesza METAR lotniska Rzeszów-Jasionka

METAR = EPRZ 230530Z 03006KT CAVOK 18/15 Q1013

STACJA......... EPRZ - Rzeszów-Jasionka (RZE)
POMIAR......... Wed Jul 23, 07:30 CEST
TERAZ.......... Wed Jul 23, 07:44 CEST
CZAS........... 14 min temu
WIATR.......... północno północno-wschodni (NNE) z prędkością 11 km/h
WIDZIALNOŚĆ.. powyżej 10 kilometrów
CHMURY......... bezchmurne niebo
TEMPERATURA.... 18°C
T.PUNKTU ROSY.. 15°C
WILGOTNOŚĆ... 83%
CIŚNIENIE..... 1013 hPa

Depesza METAR lotniska Szczecin-Goleniów

METAR = EPSC 230500Z 03006KT 9999 BKN005 17/16 Q1020

STACJA......... EPSC - Szczecin-Goleniów (SZZ)
POMIAR......... Wed Jul 23, 07:00 CEST
TERAZ.......... Wed Jul 23, 07:44 CEST
CZAS........... 44 min temu
WIATR.......... północno północno-wschodni (NNE) z prędkością 11 km/h
WIDZIALNOŚĆ.. powyżej 10 kilometrów
CHMURY......... zachmurzenie średnie (5/8-7/8)
TEMPERATURA.... 17°C
T.PUNKTU ROSY.. 16°C
WILGOTNOŚĆ... 94%
CIŚNIENIE..... 1020 hPa

Depesza METAR lotniska Lublin-Świdnik

METAR = EPLB 221500Z VRB01KT 9999 FEW020 BKN080 26/23 Q1009 NOSIG

STACJA......... EPLB - Lublin-Świdnik (LUZ)
POMIAR......... Mon Aug 22, 17:00 CEST
TERAZ.......... Wed Jul 23, 07:44 CEST
CZAS........... 25574:44 godz temu
WIATR.......... zmienny z prędkością 2 km/h
WIDZIALNOŚĆ.. powyżej 10 kilometrów
CHMURY......... zachmurzenie średnie (5/8-7/8)
TEMPERATURA.... 26°C
T.PUNKTU ROSY.. 23°C
WILGOTNOŚĆ... 84%
CIŚNIENIE..... 1009 hPa
PROGNOZA....... bez nagłych zmian w ciągu 2h

Sprawdź też: prognoza pogody dla miast w Polsce!